createdAt,value
2023-03-26T00:01:47.449Z,3.53
2023-03-26T00:04:20.573Z,3.62
2023-03-26T00:06:54.937Z,3.34
2023-03-26T00:09:25.375Z,3.85
2023-03-26T00:11:57.437Z,3.71
2023-03-26T00:14:28.044Z,3.73
2023-03-26T00:16:58.775Z,3.95
2023-03-26T00:19:31.012Z,4.24
2023-03-26T00:22:01.804Z,4.19
2023-03-26T00:24:32.829Z,4.21
2023-03-26T00:27:09.701Z,4.11
2023-03-26T00:29:40.766Z,4.16
2023-03-26T00:32:11.255Z,4.54
2023-03-26T00:34:42.185Z,4.53
2023-03-26T00:37:13.444Z,4.75
2023-03-26T00:39:45.506Z,4.89
2023-03-26T00:42:17.581Z,4.93
2023-03-26T00:44:48.396Z,4.97
2023-03-26T00:47:18.837Z,5.05
2023-03-26T00:49:49.649Z,5.12
2023-03-26T00:52:21.617Z,5.05
2023-03-26T00:54:54.815Z,5.02
2023-03-26T00:57:35.772Z,5.08
2023-03-26T01:00:17.682Z,4.99
2023-03-26T01:02:48.290Z,5.07
2023-03-26T01:05:49.944Z,5.05
2023-03-26T01:08:28.144Z,5.08
2023-03-26T01:11:07.751Z,5.06
2023-03-26T01:13:41.560Z,5.07
2023-03-26T01:16:23.428Z,5.13
2023-03-26T01:18:54.782Z,4.97
2023-03-26T01:21:30.874Z,4.98
2023-03-26T01:24:05.999Z,4.81
2023-03-26T01:27:08.723Z,5.07
2023-03-26T01:29:48.295Z,5.08
2023-03-26T01:32:38.558Z,5.11
2023-03-26T01:35:21.610Z,5.10
2023-03-26T01:38:00.140Z,4.90
2023-03-26T01:40:39.446Z,4.86
2023-03-26T01:43:15.841Z,4.89
2023-03-26T01:45:49.060Z,4.84
2023-03-26T01:48:20.838Z,4.92
2023-03-26T01:50:54.336Z,5.12
2023-03-26T01:53:24.909Z,5.35
2023-03-26T01:56:07.281Z,5.38
2023-03-26T01:58:45.406Z,5.40
2023-03-26T02:01:29.407Z,5.41
2023-03-26T02:04:05.788Z,5.55
2023-03-26T02:06:41.392Z,5.69
2023-03-26T02:09:17.209Z,5.65
2023-03-26T02:11:51.115Z,5.52
2023-03-26T02:14:21.824Z,5.60
2023-03-26T02:16:52.574Z,5.72
2023-03-26T02:19:25.332Z,5.70
2023-03-26T02:22:00.644Z,5.78
2023-03-26T02:24:31.109Z,5.93
2023-03-26T02:27:03.190Z,6.02
2023-03-26T02:29:38.599Z,5.99
2023-03-26T02:32:10.331Z,5.72
2023-03-26T02:34:41.230Z,5.91
2023-03-26T02:37:12.151Z,5.65
2023-03-26T02:39:43.195Z,5.84
2023-03-26T02:42:16.934Z,5.89
2023-03-26T02:44:47.475Z,5.72
2023-03-26T02:47:18.025Z,6.06
2023-03-26T02:49:48.423Z,5.92
2023-03-26T02:52:19.479Z,6.19
2023-03-26T02:54:49.825Z,6.06
2023-03-26T02:57:22.209Z,6.20
2023-03-26T02:59:53.599Z,6.37
2023-03-26T03:02:25.197Z,6.56
2023-03-26T03:05:03.119Z,6.67
2023-03-26T03:07:33.525Z,6.60
2023-03-26T03:10:04.125Z,6.64
2023-03-26T03:12:36.374Z,6.66
2023-03-26T03:15:07.406Z,6.64
2023-03-26T03:17:38.128Z,6.71
2023-03-26T03:20:10.321Z,6.87
2023-03-26T03:22:41.003Z,6.95
2023-03-26T03:25:15.102Z,6.38
2023-03-26T03:27:47.545Z,6.99
2023-03-26T03:30:18.103Z,6.67
2023-03-26T03:32:48.608Z,6.48
2023-03-26T03:35:19.276Z,6.30
2023-03-26T03:37:49.893Z,5.92
2023-03-26T03:40:20.535Z,5.51
2023-03-26T03:42:53.140Z,5.99
2023-03-26T03:45:23.603Z,6.01
2023-03-26T03:47:54.213Z,6.17
2023-03-26T03:50:24.886Z,6.26
2023-03-26T03:52:56.636Z,6.08
2023-03-26T03:55:30.825Z,5.89
2023-03-26T03:58:03.064Z,5.79
2023-03-26T04:00:33.581Z,6.14
2023-03-26T04:03:07.126Z,6.10
2023-03-26T04:05:37.522Z,5.98
2023-03-26T04:08:08.214Z,5.50
2023-03-26T04:10:38.700Z,5.99
2023-03-26T04:13:10.812Z,6.00
2023-03-26T04:15:41.356Z,5.94
2023-03-26T04:18:12.828Z,5.75
2023-03-26T04:20:49.999Z,6.03
2023-03-26T04:23:21.970Z,6.23
2023-03-26T04:25:55.022Z,6.11
2023-03-26T04:28:32.896Z,6.04
2023-03-26T04:31:05.147Z,6.12
2023-03-26T04:33:37.493Z,6.09
2023-03-26T04:36:09.538Z,5.99
2023-03-26T04:38:45.438Z,6.32
2023-03-26T04:41:16.652Z,6.24
2023-03-26T04:43:51.347Z,6.08
2023-03-26T04:46:23.222Z,6.21
2023-03-26T04:48:54.260Z,6.25
2023-03-26T04:51:28.819Z,6.16
2023-03-26T04:54:02.222Z,6.35
2023-03-26T04:56:41.942Z,6.16
2023-03-26T04:59:15.712Z,6.07
2023-03-26T05:01:47.053Z,5.89
2023-03-26T05:04:17.573Z,5.76
2023-03-26T05:06:48.044Z,6.00
2023-03-26T05:09:18.824Z,6.21
2023-03-26T05:11:49.320Z,6.31
2023-03-26T05:14:21.749Z,6.31
2023-03-26T05:16:54.043Z,6.71
2023-03-26T05:19:24.659Z,6.65
2023-03-26T05:21:55.273Z,6.74
2023-03-26T05:24:25.970Z,6.58
2023-03-26T05:26:56.665Z,6.71
2023-03-26T05:29:28.871Z,6.67
2023-03-26T05:31:59.371Z,6.78
2023-03-26T05:34:29.905Z,6.55
2023-03-26T05:37:00.576Z,6.46
2023-03-26T05:39:31.095Z,6.29
2023-03-26T05:42:01.574Z,6.26
2023-03-26T05:44:33.646Z,6.19
2023-03-26T05:47:04.727Z,6.28
2023-03-26T05:49:35.192Z,6.27
2023-03-26T05:52:05.697Z,6.18
2023-03-26T05:54:36.256Z,6.16
2023-03-26T05:57:07.596Z,6.31
2023-03-26T05:59:43.309Z,5.71
2023-03-26T06:02:14.145Z,5.94
2023-03-26T06:04:46.503Z,5.68
2023-03-26T06:07:17.653Z,5.84
2023-03-26T06:09:48.275Z,5.83
2023-03-26T06:12:18.828Z,5.74
2023-03-26T06:14:50.847Z,5.40
2023-03-26T06:17:21.370Z,5.59
2023-03-26T06:19:51.912Z,5.51
2023-03-26T06:22:22.518Z,5.42
2023-03-26T06:24:53.712Z,5.39
2023-03-26T06:27:24.163Z,5.31
2023-03-26T06:29:56.267Z,5.29
2023-03-26T06:32:26.949Z,5.22
2023-03-26T06:34:57.656Z,5.11
2023-03-26T06:37:28.179Z,5.04
2023-03-26T06:39:58.677Z,4.98
2023-03-26T06:43:06.934Z,4.93
2023-03-26T06:45:21.345Z,4.94
2023-03-26T06:47:51.865Z,4.91
2023-03-26T06:50:22.835Z,4.78
2023-03-26T06:52:58.801Z,4.92
2023-03-26T06:55:29.419Z,4.88
2023-03-26T06:57:59.887Z,4.89
2023-03-26T07:00:32.001Z,4.85
2023-03-26T07:03:02.598Z,4.70
2023-03-26T07:05:33.079Z,4.82
2023-03-26T07:08:03.770Z,4.80
2023-03-26T07:10:34.294Z,4.72
2023-03-26T07:13:04.812Z,4.67
2023-03-26T07:15:36.993Z,4.63
2023-03-26T07:18:08.278Z,4.50
2023-03-26T07:20:39.231Z,4.52
2023-03-26T07:23:10.255Z,4.52
2023-03-26T07:25:41.949Z,4.53
2023-03-26T07:28:21.399Z,4.54
2023-03-26T07:31:04.360Z,4.39
2023-03-26T07:33:40.215Z,4.37
2023-03-26T07:36:21.867Z,4.53
2023-03-26T07:39:13.853Z,4.47
2023-03-26T07:41:52.585Z,4.36
2023-03-26T07:44:41.236Z,4.31
2023-03-26T07:47:26.528Z,4.21
2023-03-26T07:50:00.193Z,4.09
2023-03-26T07:52:31.199Z,3.95
2023-03-26T07:55:02.107Z,3.92
2023-03-26T07:57:48.316Z,4.01
2023-03-26T08:00:23.664Z,3.57
2023-03-26T08:03:31.972Z,3.78
2023-03-26T08:06:15.576Z,3.67
2023-03-26T08:08:56.608Z,3.82
2023-03-26T08:11:37.434Z,3.73
2023-03-26T08:14:20.770Z,3.57
2023-03-26T08:16:58.466Z,3.51
2023-03-26T08:19:44.707Z,3.34
2023-03-26T08:22:27.110Z,3.33
2023-03-26T08:25:22.565Z,3.15
2023-03-26T08:28:06.686Z,3.13
2023-03-26T08:30:39.077Z,2.95
2023-03-26T08:33:17.751Z,2.70
2023-03-26T08:35:49.099Z,2.64
2023-03-26T08:38:23.926Z,2.63
2023-03-26T08:41:31.247Z,2.63
2023-03-26T08:44:48.508Z,2.56
2023-03-26T08:48:00.273Z,2.56
2023-03-26T08:50:52.580Z,2.44
2023-03-26T08:54:07.041Z,2.34
2023-03-26T08:56:51.204Z,2.24
2023-03-26T09:00:14.490Z,2.20
2023-03-26T09:03:19.958Z,2.01
2023-03-26T09:06:37.226Z,2.03
2023-03-26T09:09:59.873Z,2.03
2023-03-26T09:12:58.294Z,2.00
2023-03-26T09:16:19.175Z,1.97
2023-03-26T09:19:22.341Z,1.91
2023-03-26T09:22:25.150Z,1.91
2023-03-26T09:25:42.491Z,1.89
2023-03-26T09:28:34.462Z,1.94
2023-03-26T09:31:45.874Z,1.87
2023-03-26T09:34:36.526Z,1.75
2023-03-26T09:37:20.090Z,1.76
2023-03-26T09:40:05.919Z,1.69
2023-03-26T09:42:48.993Z,1.59
2023-03-26T09:45:37.997Z,1.58
2023-03-26T09:48:38.443Z,1.59
2023-03-26T09:51:37.099Z,1.54
2023-03-26T09:54:35.423Z,1.59
2023-03-26T09:57:16.002Z,1.42
2023-03-26T10:00:07.199Z,1.34
2023-03-26T10:03:01.211Z,1.07
2023-03-26T10:05:47.044Z,1.42
2023-03-26T10:08:45.253Z,1.38
2023-03-26T10:11:25.898Z,1.56
2023-03-26T10:14:06.331Z,1.57
2023-03-26T10:16:52.849Z,1.66
2023-03-26T10:19:36.791Z,1.67
2023-03-26T10:22:17.212Z,1.61
2023-03-26T10:25:22.948Z,1.61
2023-03-26T10:28:06.942Z,1.63
2023-03-26T10:31:07.387Z,1.66
2023-03-26T10:33:50.701Z,1.62
2023-03-26T10:36:33.853Z,1.21
2023-03-26T10:39:38.981Z,1.59
2023-03-26T10:42:38.373Z,1.46
2023-03-26T10:45:43.885Z,1.56
2023-03-26T10:48:42.865Z,1.51
2023-03-26T10:51:37.635Z,1.54
2023-03-26T10:54:17.834Z,1.58
2023-03-26T10:56:54.694Z,1.53
2023-03-26T10:59:28.220Z,1.56
2023-03-26T11:02:30.110Z,1.60
2023-03-26T11:05:24.705Z,1.48
2023-03-26T11:08:04.756Z,1.39
2023-03-26T11:10:45.789Z,1.41
2023-03-26T11:13:29.093Z,1.36
2023-03-26T11:16:07.178Z,1.36
2023-03-26T11:18:46.232Z,1.39
2023-03-26T11:21:25.862Z,1.31
2023-03-26T11:24:14.563Z,1.29
2023-03-26T11:26:53.938Z,1.31
2023-03-26T11:29:37.987Z,1.33
2023-03-26T11:32:16.424Z,1.32
2023-03-26T11:34:55.240Z,1.45
2023-03-26T11:37:35.440Z,1.47
2023-03-26T11:40:13.989Z,1.31
2023-03-26T11:42:45.695Z,1.16
2023-03-26T11:45:22.421Z,1.32
2023-03-26T11:47:56.250Z,1.31
2023-03-26T11:50:30.516Z,1.25
2023-03-26T11:53:06.417Z,1.17
2023-03-26T11:55:40.655Z,1.02
2023-03-26T11:58:30.396Z,0.41
2023-03-26T12:01:05.210Z,1.01
2023-03-26T12:03:39.125Z,0.97
2023-03-26T12:06:30.206Z,0.98
2023-03-26T12:09:01.069Z,1.02
2023-03-26T12:11:36.156Z,1.03
2023-03-26T12:14:08.333Z,1.04
2023-03-26T12:16:38.893Z,1.01
2023-03-26T12:19:23.028Z,0.99
2023-03-26T12:21:55.300Z,0.91
2023-03-26T12:24:31.795Z,0.91
2023-03-26T12:27:05.566Z,0.99
2023-03-26T12:29:36.538Z,0.97
2023-03-26T12:32:10.255Z,0.78
2023-03-26T12:34:42.624Z,0.92
2023-03-26T12:37:37.349Z,0.92
2023-03-26T12:40:28.795Z,0.85
2023-03-26T12:44:53.289Z,0.94
2023-03-26T12:47:54.236Z,0.90
2023-03-26T12:48:48.257Z,0.86
2023-03-26T12:51:30.267Z,0.95
2023-03-26T12:54:11.322Z,0.96
2023-03-26T12:56:46.427Z,0.96
2023-03-26T12:59:39.513Z,0.96
2023-03-26T13:02:35.397Z,0.94
2023-03-26T13:05:35.243Z,0.94
2023-03-26T13:08:26.832Z,0.96
2023-03-26T13:11:04.701Z,0.99
2023-03-26T13:13:53.983Z,1.00
2023-03-26T13:16:32.582Z,1.03
2023-03-26T13:19:09.516Z,1.00
2023-03-26T13:22:00.100Z,0.99
2023-03-26T13:24:44.181Z,0.98
2023-03-26T13:27:39.648Z,0.93
2023-03-26T13:30:24.990Z,0.95
2023-03-26T13:33:14.969Z,0.96
2023-03-26T13:35:48.971Z,0.96
2023-03-26T13:38:30.604Z,0.97
2023-03-26T13:41:09.292Z,0.94
2023-03-26T13:43:52.230Z,0.93
2023-03-26T13:46:35.388Z,0.68
2023-03-26T13:49:13.971Z,0.94
2023-03-26T13:51:47.630Z,0.95
2023-03-26T13:54:26.829Z,0.96
2023-03-26T13:57:02.640Z,0.86
2023-03-26T13:59:38.775Z,0.98
2023-03-26T14:02:14.232Z,0.91
2023-03-26T14:04:50.255Z,0.92
2023-03-26T14:07:25.622Z,1.02
2023-03-26T14:09:59.819Z,1.13
2023-03-26T14:12:49.924Z,1.10
2023-03-26T14:15:29.832Z,1.12
2023-03-26T14:18:04.241Z,1.13
2023-03-26T14:21:11.693Z,0.89
2023-03-26T14:24:00.857Z,0.99
2023-03-26T14:26:44.199Z,0.96
2023-03-26T14:29:56.895Z,0.86
2023-03-26T14:32:39.891Z,0.78
2023-03-26T14:35:24.205Z,0.71
2023-03-26T14:38:25.483Z,0.70
2023-03-26T14:41:15.595Z,0.58
2023-03-26T14:44:18.566Z,0.64
2023-03-26T14:47:08.194Z,0.62
2023-03-26T14:50:05.175Z,0.53
2023-03-26T14:52:49.199Z,0.48
2023-03-26T14:55:40.513Z,0.43
2023-03-26T14:58:49.414Z,0.47
2023-03-26T15:01:30.867Z,0.32
2023-03-26T15:04:45.357Z,0.33
2023-03-26T15:07:52.264Z,0.35
2023-03-26T15:10:56.787Z,0.42
2023-03-26T15:13:51.563Z,0.45
2023-03-26T15:16:55.423Z,0.46
2023-03-26T15:20:01.326Z,0.41
2023-03-26T15:23:09.755Z,0.42
2023-03-26T15:26:20.524Z,0.47
2023-03-26T15:29:30.815Z,-0.01
2023-03-26T15:32:30.991Z,0.27
2023-03-26T15:35:46.683Z,0.19
2023-03-26T15:38:49.232Z,0.13
2023-03-26T15:41:28.917Z,0.09
2023-03-26T15:44:50.952Z,0.06
2023-03-26T15:47:51.094Z,0.07
2023-03-26T15:50:38.859Z,0.10
2023-03-26T15:53:24.507Z,0.21
2023-03-26T15:56:09.817Z,-0.14
2023-03-26T15:58:51.243Z,0.38
2023-03-26T16:01:35.425Z,0.34
2023-03-26T16:04:20.461Z,0.32
2023-03-26T16:06:59.511Z,0.42
2023-03-26T16:09:58.347Z,0.40
2023-03-26T16:12:43.971Z,0.31
2023-03-26T16:15:27.467Z,0.20
2023-03-26T16:18:30.598Z,0.14
2023-03-26T16:21:56.863Z,0.08
2023-03-26T16:24:31.260Z,0.04
2023-03-26T16:27:34.336Z,0.02
2023-03-26T16:30:32.304Z,0.11
2023-03-26T16:33:16.748Z,0.11
2023-03-26T16:36:09.717Z,0.19
2023-03-26T16:39:04.753Z,0.25
2023-03-26T16:41:37.334Z,0.07
2023-03-26T16:44:18.078Z,0.26
2023-03-26T16:47:01.000Z,0.39
2023-03-26T16:49:47.011Z,0.43
2023-03-26T16:52:52.928Z,0.38
2023-03-26T16:55:41.437Z,0.35
2023-03-26T16:58:24.453Z,0.48
2023-03-26T17:01:06.988Z,0.47
2023-03-26T17:03:47.577Z,0.47
2023-03-26T17:06:42.326Z,0.53
2023-03-26T17:09:25.918Z,0.55
2023-03-26T17:12:08.673Z,0.54
2023-03-26T17:14:52.632Z,0.58
2023-03-26T17:17:45.503Z,0.60
2023-03-26T17:20:33.696Z,0.65
2023-03-26T17:23:19.740Z,0.64
2023-03-26T17:26:06.479Z,0.63
2023-03-26T17:29:04.879Z,0.58
2023-03-26T17:31:42.569Z,0.43
2023-03-26T17:34:47.956Z,0.40
2023-03-26T17:37:46.662Z,0.29
2023-03-26T17:40:48.896Z,0.19
2023-03-26T17:43:38.760Z,0.12
2023-03-26T17:46:23.279Z,-0.02
2023-03-26T17:49:01.042Z,-0.01
2023-03-26T17:51:46.712Z,-0.07
2023-03-26T17:54:24.719Z,-0.12
2023-03-26T17:56:57.257Z,-0.21
2023-03-26T17:59:30.256Z,-0.15
2023-03-26T18:02:04.388Z,-0.10
2023-03-26T18:04:38.296Z,-0.06
2023-03-26T18:07:32.247Z,-0.12
2023-03-26T18:10:25.344Z,-0.18
2023-03-26T18:13:25.260Z,-0.19
2023-03-26T18:16:10.284Z,-0.54
2023-03-26T18:18:50.766Z,-0.49
2023-03-26T18:21:27.853Z,-0.27
2023-03-26T18:24:00.174Z,-0.29
2023-03-26T18:26:39.171Z,-0.25
2023-03-26T18:29:20.255Z,-0.17
2023-03-26T18:31:57.499Z,-0.22
2023-03-26T18:34:32.737Z,-0.23
2023-03-26T18:37:15.522Z,-0.26
2023-03-26T18:39:58.488Z,-0.76
2023-03-26T18:42:29.931Z,-0.23
2023-03-26T18:45:05.077Z,-0.24
2023-03-26T18:47:37.386Z,-0.49
2023-03-26T18:50:19.543Z,-0.32
2023-03-26T18:52:50.868Z,-0.39
2023-03-26T18:55:23.505Z,-0.32
2023-03-26T18:57:54.048Z,-0.35
2023-03-26T19:00:26.297Z,-0.55
2023-03-26T19:03:06.600Z,-0.31
2023-03-26T19:05:39.942Z,-0.25
2023-03-26T19:08:10.738Z,-0.24
2023-03-26T19:10:44.262Z,-0.30
2023-03-26T19:13:17.842Z,-0.34
2023-03-26T19:15:49.471Z,-0.24
2023-03-26T19:18:27.408Z,-0.26
2023-03-26T19:21:02.937Z,-0.29
2023-03-26T19:23:37.744Z,-0.27
2023-03-26T19:26:13.444Z,-0.92
2023-03-26T19:28:49.910Z,-0.42
2023-03-26T19:31:31.037Z,-0.61
2023-03-26T19:34:09.891Z,-0.30
2023-03-26T19:36:58.864Z,-0.54
2023-03-26T19:39:40.021Z,-0.36
2023-03-26T19:42:15.782Z,-0.25
2023-03-26T19:44:47.317Z,-0.80
2023-03-26T19:47:47.346Z,-0.21
2023-03-26T19:50:28.877Z,-0.23
2023-03-26T19:53:35.748Z,-0.62
2023-03-26T19:56:35.075Z,-0.53
2023-03-26T19:59:16.696Z,-0.28
2023-03-26T20:01:47.386Z,-0.28
2023-03-26T20:04:18.011Z,-0.41
2023-03-26T20:06:50.753Z,-0.23
2023-03-26T20:09:22.855Z,-0.25
2023-03-26T20:11:53.491Z,-0.31
2023-03-26T20:14:26.796Z,-0.29
2023-03-26T20:16:57.585Z,-0.33
2023-03-26T20:19:28.232Z,-0.34
2023-03-26T20:21:58.862Z,-0.34
2023-03-26T20:24:31.419Z,-0.39
2023-03-26T20:27:01.910Z,-0.48
2023-03-26T20:29:32.461Z,-0.45
2023-03-26T20:32:04.496Z,-0.43
2023-03-26T20:34:35.203Z,-0.46
2023-03-26T20:37:05.648Z,-0.46
2023-03-26T20:39:37.795Z,-0.46
2023-03-26T20:42:08.595Z,-0.48
2023-03-26T20:44:39.230Z,-0.47
2023-03-26T20:47:10.173Z,-0.43
2023-03-26T20:49:41.064Z,-0.40
2023-03-26T20:52:16.280Z,-0.41
2023-03-26T20:54:50.062Z,-0.35
2023-03-26T20:57:21.000Z,-0.39
2023-03-26T20:59:51.504Z,-0.57
2023-03-26T21:02:22.687Z,-0.47
2023-03-26T21:04:53.741Z,-0.50
2023-03-26T21:07:24.301Z,-0.56
2023-03-26T21:10:03.472Z,-0.60
2023-03-26T21:12:38.926Z,-0.61
2023-03-26T21:15:22.499Z,-0.62
2023-03-26T21:17:55.743Z,-0.68
2023-03-26T21:20:29.326Z,-0.90
2023-03-26T21:23:10.953Z,-0.69
2023-03-26T21:25:53.619Z,-0.96
2023-03-26T21:28:41.851Z,-0.88
2023-03-26T21:31:19.242Z,-0.68
2023-03-26T21:33:51.436Z,-0.83
2023-03-26T21:36:23.792Z,-0.66
2023-03-26T21:38:55.477Z,-0.67
2023-03-26T21:41:37.264Z,-0.65
2023-03-26T21:44:08.269Z,-0.59
2023-03-26T21:46:39.398Z,-0.58
2023-03-26T21:49:10.371Z,-0.54
2023-03-26T21:51:41.558Z,-0.56
2023-03-26T21:54:24.343Z,-0.51
2023-03-26T21:57:13.563Z,-0.42
2023-03-26T21:59:53.112Z,-0.38
2023-03-26T22:02:31.843Z,-0.44
2023-03-26T22:05:10.825Z,-0.32
2023-03-26T22:07:52.360Z,-0.21
2023-03-26T22:10:23.092Z,-0.18
2023-03-26T22:12:55.184Z,-0.23
2023-03-26T22:15:27.546Z,-0.43
2023-03-26T22:17:58.062Z,-0.17
2023-03-26T22:20:28.913Z,-0.14
2023-03-26T22:23:01.333Z,-0.53
2023-03-26T22:25:31.859Z,-0.08
2023-03-26T22:28:05.171Z,-0.11
2023-03-26T22:30:36.487Z,-0.26
2023-03-26T22:33:12.737Z,-0.02
2023-03-26T22:35:44.928Z,0.04
2023-03-26T22:38:15.883Z,0.03
2023-03-26T22:40:46.427Z,0.07
2023-03-26T22:43:18.621Z,-0.03
2023-03-26T22:45:52.598Z,-0.10
2023-03-26T22:48:23.398Z,0.10
2023-03-26T22:51:04.352Z,0.18
2023-03-26T22:53:34.959Z,0.22
2023-03-26T22:56:06.350Z,0.15
2023-03-26T22:58:38.839Z,0.13
2023-03-26T23:01:11.674Z,0.18
2023-03-26T23:03:42.370Z,0.27
2023-03-26T23:06:14.074Z,0.28
2023-03-26T23:08:47.558Z,0.34
2023-03-26T23:11:19.924Z,0.36
2023-03-26T23:13:52.727Z,0.39
2023-03-26T23:16:23.423Z,0.53
2023-03-26T23:18:54.022Z,0.52
2023-03-26T23:21:25.161Z,0.43
2023-03-26T23:23:55.665Z,0.58
2023-03-26T23:26:27.264Z,0.73
2023-03-26T23:29:00.022Z,0.81
2023-03-26T23:31:32.666Z,0.82
2023-03-26T23:34:03.409Z,0.75
2023-03-26T23:36:33.911Z,0.99
2023-03-26T23:39:05.544Z,0.98
2023-03-26T23:41:36.105Z,1.05
2023-03-26T23:44:08.437Z,0.95
2023-03-26T23:46:42.399Z,1.02
2023-03-26T23:49:13.032Z,1.03
2023-03-26T23:51:43.890Z,1.04
2023-03-26T23:54:14.616Z,1.02
2023-03-26T23:56:45.143Z,1.15
2023-03-26T23:59:17.792Z,1.20
